createdAt,value
2018-08-13T00:01:10.084Z,1.87
2018-08-13T00:03:38.738Z,1.60
2018-08-13T00:06:14.123Z,1.80
2018-08-13T00:08:42.826Z,1.90
2018-08-13T00:11:11.506Z,1.50
2018-08-13T00:13:40.239Z,1.83
2018-08-13T00:16:09.032Z,1.90
2018-08-13T00:18:37.948Z,1.70
2018-08-13T00:21:06.707Z,1.80
2018-08-13T00:23:35.508Z,1.97
2018-08-13T00:26:04.382Z,1.93
2018-08-13T00:28:33.089Z,1.80
2018-08-13T00:31:01.774Z,2.00
2018-08-13T00:33:30.788Z,2.20
2018-08-13T00:35:59.528Z,1.70
2018-08-13T00:38:28.141Z,2.17
2018-08-13T00:40:56.894Z,2.10
2018-08-13T00:43:25.646Z,1.73
2018-08-13T00:45:54.393Z,1.70
2018-08-13T00:48:23.068Z,2.50
2018-08-13T00:50:51.794Z,1.87
2018-08-13T00:53:20.463Z,1.97
2018-08-13T00:55:49.308Z,2.20
2018-08-13T00:58:18.051Z,2.63
2018-08-13T01:00:46.874Z,2.00
2018-08-13T01:03:15.534Z,1.87
2018-08-13T01:05:44.273Z,2.00
2018-08-13T01:08:13.206Z,1.60
2018-08-13T01:10:42.025Z,2.27
2018-08-13T01:13:10.755Z,2.00
2018-08-13T01:15:39.622Z,2.00
2018-08-13T01:18:08.476Z,1.97
2018-08-13T01:20:37.293Z,2.63
2018-08-13T01:23:06.064Z,2.30
2018-08-13T01:25:34.768Z,1.47
2018-08-13T01:28:04.046Z,2.10
2018-08-13T01:30:32.716Z,1.80
2018-08-13T01:33:01.460Z,2.20
2018-08-13T01:35:30.164Z,1.90
2018-08-13T01:37:58.901Z,2.30
2018-08-13T01:40:27.565Z,1.80
2018-08-13T01:42:56.260Z,1.80
2018-08-13T01:45:25.967Z,1.57
2018-08-13T01:47:54.714Z,2.20
2018-08-13T01:50:23.538Z,1.23
2018-08-13T01:52:52.265Z,1.63
2018-08-13T01:55:21.296Z,1.80
2018-08-13T01:57:50.106Z,1.50
2018-08-13T02:00:19.000Z,1.77
2018-08-13T02:02:47.662Z,2.03
2018-08-13T02:05:16.451Z,1.30
2018-08-13T02:07:45.481Z,1.53
2018-08-13T02:10:14.390Z,1.70
2018-08-13T02:12:43.410Z,1.50
2018-08-13T02:15:12.287Z,1.83
2018-08-13T02:17:41.316Z,2.00
2018-08-13T02:20:10.400Z,1.90
2018-08-13T02:22:39.170Z,1.80
2018-08-13T02:25:08.590Z,1.60
2018-08-13T02:27:37.282Z,1.87
2018-08-13T02:30:08.252Z,1.60
2018-08-13T02:32:37.018Z,3.70
2018-08-13T02:35:07.035Z,1.87
2018-08-13T02:37:35.778Z,1.83
2018-08-13T02:40:05.929Z,1.53
2018-08-13T02:42:34.757Z,1.70
2018-08-13T02:45:03.645Z,2.10
2018-08-13T02:47:32.361Z,1.30
2018-08-13T02:50:01.173Z,1.40
2018-08-13T02:52:30.011Z,1.50
2018-08-13T02:54:58.738Z,2.07
2018-08-13T02:57:27.623Z,2.10
2018-08-13T02:59:56.342Z,2.30
2018-08-13T03:02:25.027Z,1.87
2018-08-13T03:04:53.659Z,1.43
2018-08-13T03:07:22.460Z,1.70
2018-08-13T03:09:51.118Z,2.03
2018-08-13T03:12:20.056Z,1.90
2018-08-13T03:14:48.911Z,1.90
2018-08-13T03:17:30.792Z,1.67
2018-08-13T03:20:00.527Z,1.57
2018-08-13T03:22:30.384Z,2.07
2018-08-13T03:25:00.817Z,1.80
2018-08-13T03:27:30.101Z,1.90
2018-08-13T03:29:59.930Z,1.50
2018-08-13T03:32:28.695Z,1.90
2018-08-13T03:34:57.538Z,2.10
2018-08-13T03:37:26.384Z,1.70
2018-08-13T03:39:55.176Z,1.53
2018-08-13T03:42:23.881Z,2.10
2018-08-13T03:44:52.511Z,1.87
2018-08-13T03:47:21.337Z,2.03
2018-08-13T03:49:50.015Z,1.90
2018-08-13T03:52:18.683Z,1.50
2018-08-13T03:54:47.383Z,2.00
2018-08-13T03:57:16.077Z,1.63
2018-08-13T03:59:44.726Z,1.50
2018-08-13T04:02:13.462Z,2.10
2018-08-13T04:04:42.144Z,1.33
2018-08-13T04:07:10.792Z,1.40
2018-08-13T04:09:39.466Z,1.80
2018-08-13T04:12:08.182Z,1.87
2018-08-13T04:14:36.811Z,1.97
2018-08-13T04:17:05.672Z,1.93
2018-08-13T04:19:34.719Z,2.53
2018-08-13T04:22:03.605Z,2.00
2018-08-13T04:24:32.396Z,1.57
2018-08-13T04:27:01.185Z,2.30
2018-08-13T04:29:30.079Z,1.77
2018-08-13T04:31:58.851Z,2.17
2018-08-13T04:34:27.505Z,1.87
2018-08-13T04:36:56.249Z,2.27
2018-08-13T04:39:24.948Z,1.60
2018-08-13T04:41:53.594Z,2.20
2018-08-13T04:44:22.266Z,1.50
2018-08-13T04:46:50.998Z,2.50
2018-08-13T04:49:20.376Z,2.13
2018-08-13T04:51:49.114Z,2.07
2018-08-13T04:54:26.676Z,2.30
2018-08-13T04:57:00.810Z,2.33
2018-08-13T04:59:29.452Z,2.57
2018-08-13T05:01:58.153Z,1.80
2018-08-13T05:04:26.829Z,2.17
2018-08-13T05:07:04.985Z,2.00
2018-08-13T05:09:33.715Z,1.90
2018-08-13T05:12:02.691Z,1.87
2018-08-13T05:14:31.268Z,1.90
2018-08-13T05:16:59.990Z,2.20
2018-08-13T05:19:29.146Z,2.10
2018-08-13T05:21:57.982Z,2.40
2018-08-13T05:24:26.631Z,1.77
2018-08-13T05:26:55.238Z,1.93
2018-08-13T05:29:38.029Z,2.00
2018-08-13T05:32:06.873Z,3.40
2018-08-13T05:34:35.668Z,3.23
2018-08-13T05:37:04.522Z,1.80
2018-08-13T05:39:34.245Z,1.93
2018-08-13T05:42:03.068Z,2.63
2018-08-13T05:44:31.739Z,2.37
2018-08-13T05:47:02.067Z,3.50
2018-08-13T05:49:30.850Z,2.30
2018-08-13T05:51:59.593Z,3.30
2018-08-13T05:54:28.308Z,2.43
2018-08-13T05:56:58.458Z,9.03
2018-08-13T05:59:27.116Z,2.33
2018-08-13T06:01:56.001Z,2.33
2018-08-13T06:04:24.710Z,2.90
2018-08-13T06:06:53.480Z,5.70
2018-08-13T06:09:22.155Z,3.47
2018-08-13T06:11:51.215Z,2.53
2018-08-13T06:14:19.991Z,2.50
2018-08-13T06:16:48.869Z,2.63
2018-08-13T06:19:17.638Z,3.00
2018-08-13T06:21:46.413Z,2.33
2018-08-13T06:24:15.180Z,2.20
2018-08-13T06:26:44.107Z,2.30
2018-08-13T06:29:12.785Z,2.80
2018-08-13T06:31:41.588Z,2.70
2018-08-13T06:34:10.271Z,2.97
2018-08-13T06:36:39.025Z,3.00
2018-08-13T06:39:09.459Z,3.10
2018-08-13T06:41:38.232Z,3.20
2018-08-13T06:44:07.141Z,2.70
2018-08-13T06:46:36.541Z,3.23
2018-08-13T06:49:05.533Z,2.57
2018-08-13T06:51:35.012Z,2.20
2018-08-13T06:54:03.958Z,3.63
2018-08-13T06:56:32.821Z,2.87
2018-08-13T06:59:01.424Z,2.80
2018-08-13T07:01:30.248Z,3.10
2018-08-13T07:03:59.005Z,2.60
2018-08-13T07:06:27.787Z,3.17
2018-08-13T07:08:56.474Z,3.50
2018-08-13T07:11:25.273Z,3.00
2018-08-13T07:13:54.150Z,3.20
2018-08-13T07:16:22.903Z,3.70
2018-08-13T07:18:51.807Z,3.30
2018-08-13T07:21:20.543Z,3.60
2018-08-13T07:23:49.331Z,3.10
2018-08-13T07:26:18.076Z,3.73
2018-08-13T07:28:46.772Z,4.33
2018-08-13T07:31:15.554Z,4.23
2018-08-13T07:33:44.350Z,4.83
2018-08-13T07:36:13.052Z,4.57
2018-08-13T07:38:41.636Z,3.07
2018-08-13T07:41:10.420Z,3.80
2018-08-13T07:43:39.206Z,3.43
2018-08-13T07:46:08.014Z,4.17
2018-08-13T07:48:36.680Z,4.40
2018-08-13T07:51:05.347Z,3.70
2018-08-13T07:53:34.033Z,4.97
2018-08-13T07:56:02.745Z,4.13
2018-08-13T07:58:31.482Z,3.97
2018-08-13T08:01:00.233Z,3.20
2018-08-13T08:03:29.031Z,3.50
2018-08-13T08:05:58.210Z,4.27
2018-08-13T08:08:26.914Z,3.90
2018-08-13T08:10:55.723Z,4.77
2018-08-13T08:13:24.552Z,3.73
2018-08-13T08:15:53.578Z,3.30
2018-08-13T08:18:22.291Z,3.50
2018-08-13T08:20:51.116Z,3.27
2018-08-13T08:23:19.823Z,3.00
2018-08-13T08:25:49.018Z,3.40
2018-08-13T08:28:17.757Z,3.63
2018-08-13T08:30:46.526Z,2.53
2018-08-13T08:33:15.372Z,2.77
2018-08-13T08:35:44.022Z,3.00
2018-08-13T08:38:12.754Z,3.00
2018-08-13T08:40:41.447Z,3.17
2018-08-13T08:43:10.507Z,2.93
2018-08-13T08:45:39.308Z,3.10
2018-08-13T08:48:09.066Z,3.00
2018-08-13T08:50:37.982Z,2.60
2018-08-13T08:53:06.869Z,2.80
2018-08-13T08:55:35.617Z,3.50
2018-08-13T08:58:04.313Z,2.57
2018-08-13T09:00:32.995Z,3.00
2018-08-13T09:03:01.827Z,3.67
2018-08-13T09:05:30.535Z,2.73
2018-08-13T09:07:59.578Z,3.20
2018-08-13T09:10:28.306Z,3.07
2018-08-13T09:12:57.228Z,3.40
2018-08-13T09:15:26.000Z,2.90
2018-08-13T09:18:05.992Z,3.27
2018-08-13T09:20:45.877Z,2.20
2018-08-13T09:23:25.705Z,3.87
2018-08-13T09:26:05.643Z,3.10
2018-08-13T09:28:45.656Z,2.07
2018-08-13T09:31:23.964Z,2.33
2018-08-13T09:35:04.464Z,1.90
2018-08-13T09:37:33.131Z,3.20
2018-08-13T09:40:01.925Z,2.23
2018-08-13T09:42:31.115Z,2.53
2018-08-13T09:44:59.781Z,2.20
2018-08-13T09:47:29.519Z,2.43
2018-08-13T09:49:58.473Z,2.53
2018-08-13T09:52:27.217Z,2.80
2018-08-13T09:54:56.192Z,2.17
2018-08-13T09:57:25.081Z,3.10
2018-08-13T09:59:53.806Z,2.17
2018-08-13T10:02:22.527Z,2.60
2018-08-13T10:04:51.308Z,3.60
2018-08-13T10:07:20.060Z,2.87
2018-08-13T10:09:48.904Z,2.80
2018-08-13T10:12:17.708Z,2.77
2018-08-13T10:14:46.415Z,2.60
2018-08-13T10:17:15.627Z,3.40
2018-08-13T10:19:44.477Z,2.60
2018-08-13T10:22:13.128Z,3.33
2018-08-13T10:24:41.981Z,2.73
2018-08-13T10:27:10.757Z,2.13
2018-08-13T10:29:39.474Z,1.97
2018-08-13T10:32:08.226Z,1.23
2018-08-13T10:34:37.624Z,1.80
2018-08-13T10:37:06.409Z,1.40
2018-08-13T10:39:35.261Z,1.60
2018-08-13T10:42:04.131Z,1.10
2018-08-13T10:44:32.873Z,1.40
2018-08-13T10:47:01.518Z,1.77
2018-08-13T10:49:30.290Z,1.43
2018-08-13T10:51:59.238Z,1.33
2018-08-13T10:54:27.986Z,1.30
2018-08-13T10:56:56.806Z,1.60
2018-08-13T10:59:25.544Z,1.20
2018-08-13T11:01:54.192Z,1.10
2018-08-13T11:04:22.934Z,1.57
2018-08-13T11:06:51.723Z,1.30
2018-08-13T11:09:20.509Z,1.40
2018-08-13T11:11:49.330Z,1.50
2018-08-13T11:14:18.049Z,0.97
2018-08-13T11:16:46.872Z,1.23
2018-08-13T11:19:15.670Z,1.60
2018-08-13T11:21:44.385Z,1.53
2018-08-13T11:24:13.099Z,1.67
2018-08-13T11:26:41.782Z,1.43
2018-08-13T11:29:10.646Z,1.37
2018-08-13T11:31:39.510Z,1.17
2018-08-13T11:34:08.324Z,1.77
2018-08-13T11:36:37.214Z,1.60
2018-08-13T11:39:10.354Z,1.30
2018-08-13T11:41:39.477Z,1.60
2018-08-13T11:44:08.302Z,1.37
2018-08-13T11:46:37.092Z,1.43
2018-08-13T11:49:06.008Z,1.40
2018-08-13T11:51:34.736Z,1.47
2018-08-13T11:54:04.098Z,1.53
2018-08-13T11:56:32.998Z,1.70
2018-08-13T11:59:02.561Z,1.40
2018-08-13T12:01:31.345Z,1.10
2018-08-13T12:04:00.033Z,1.40
2018-08-13T12:06:28.739Z,1.27
2018-08-13T12:08:57.399Z,1.30
2018-08-13T12:11:26.183Z,1.50
2018-08-13T12:13:54.915Z,1.10
2018-08-13T12:16:23.681Z,1.67
2018-08-13T12:18:52.385Z,1.70
2018-08-13T12:21:21.022Z,1.40
2018-08-13T12:23:49.719Z,1.87
2018-08-13T12:26:18.360Z,1.23
2018-08-13T12:28:47.218Z,2.00
2018-08-13T12:31:16.101Z,1.83
2018-08-13T12:33:44.873Z,2.10
2018-08-13T12:36:13.491Z,1.40
2018-08-13T12:38:42.267Z,1.67
2018-08-13T12:41:10.982Z,1.33
2018-08-13T12:43:39.664Z,1.67
2018-08-13T12:46:08.855Z,1.53
2018-08-13T12:48:37.582Z,1.93
2018-08-13T12:51:06.471Z,1.53
2018-08-13T12:53:35.351Z,1.33
2018-08-13T12:56:04.283Z,1.90
2018-08-13T12:58:33.130Z,1.93
2018-08-13T13:01:05.991Z,1.83
2018-08-13T13:03:34.668Z,1.80
2018-08-13T13:06:03.694Z,1.97
2018-08-13T13:08:32.573Z,1.70
2018-08-13T13:11:01.273Z,1.37
2018-08-13T13:13:30.009Z,1.30
2018-08-13T13:15:58.944Z,1.40
2018-08-13T13:18:27.680Z,1.00
2018-08-13T13:20:56.400Z,2.07
2018-08-13T13:23:25.130Z,1.53
2018-08-13T13:25:53.916Z,1.60
2018-08-13T13:28:22.651Z,1.43
2018-08-13T13:30:51.336Z,1.80
2018-08-13T13:33:20.072Z,1.50
2018-08-13T13:35:49.174Z,1.30
2018-08-13T13:38:17.818Z,4.40
2018-08-13T13:40:46.687Z,1.67
2018-08-13T13:43:15.607Z,1.77
2018-08-13T13:45:44.273Z,1.50
2018-08-13T13:48:12.904Z,2.10
2018-08-13T13:50:41.644Z,2.00
2018-08-13T13:53:10.310Z,1.80
2018-08-13T13:55:39.224Z,2.53
2018-08-13T13:58:08.224Z,2.20
2018-08-13T14:00:36.913Z,2.40
2018-08-13T14:03:06.124Z,2.00
2018-08-13T14:05:35.238Z,2.23
2018-08-13T14:08:03.991Z,2.40
2018-08-13T14:10:32.807Z,2.27
2018-08-13T14:13:01.678Z,3.20
2018-08-13T14:15:30.477Z,2.20
2018-08-13T14:17:59.148Z,2.43
2018-08-13T14:20:28.203Z,2.00
2018-08-13T14:22:56.985Z,2.43
2018-08-13T14:25:25.785Z,2.20
2018-08-13T14:27:54.512Z,1.23
2018-08-13T14:30:25.961Z,1.03
2018-08-13T14:32:54.932Z,1.00
2018-08-13T14:35:24.860Z,1.40
2018-08-13T14:37:53.752Z,1.07
2018-08-13T14:40:22.537Z,1.57
2018-08-13T14:42:51.438Z,1.37
2018-08-13T14:45:20.375Z,1.37
2018-08-13T14:47:50.692Z,2.00
2018-08-13T14:50:19.711Z,1.87
2018-08-13T14:52:49.319Z,1.83
2018-08-13T14:55:20.018Z,1.87
2018-08-13T14:57:48.954Z,3.07
2018-08-13T15:00:22.654Z,1.90
2018-08-13T15:02:51.956Z,2.37
2018-08-13T15:05:20.915Z,2.17
2018-08-13T15:07:49.627Z,3.10
2018-08-13T15:10:20.291Z,3.63
2018-08-13T15:12:49.212Z,4.40
2018-08-13T15:15:18.118Z,3.07
2018-08-13T15:17:46.950Z,2.30
2018-08-13T15:20:20.406Z,3.00
2018-08-13T15:22:49.057Z,2.40
2018-08-13T15:25:17.934Z,2.77
2018-08-13T15:27:46.851Z,2.60
2018-08-13T15:30:16.971Z,3.17
2018-08-13T15:32:46.767Z,3.53
2018-08-13T15:35:15.610Z,3.20
2018-08-13T15:37:45.021Z,3.40
2018-08-13T15:40:13.820Z,3.93
2018-08-13T15:42:42.827Z,3.63
2018-08-13T15:45:16.042Z,4.77
2018-08-13T15:47:45.061Z,4.03
2018-08-13T15:50:15.770Z,5.23
2018-08-13T15:52:44.942Z,4.67
2018-08-13T15:55:14.473Z,4.40
2018-08-13T15:57:43.803Z,4.40
2018-08-13T16:00:27.749Z,4.57
2018-08-13T16:02:56.569Z,4.30
2018-08-13T16:05:25.465Z,5.50
2018-08-13T16:07:54.366Z,4.33
2018-08-13T16:10:23.208Z,4.30
2018-08-13T16:12:52.021Z,4.67
2018-08-13T16:15:20.781Z,3.47
2018-08-13T16:17:49.621Z,3.87
2018-08-13T16:20:19.414Z,3.37
2018-08-13T16:22:49.145Z,3.60
2018-08-13T16:25:18.443Z,2.93
2018-08-13T16:27:47.830Z,3.30
2018-08-13T16:30:23.379Z,3.27
2018-08-13T16:32:52.341Z,3.50
2018-08-13T16:35:21.841Z,3.93
2018-08-13T16:37:50.657Z,3.80
2018-08-13T16:40:20.989Z,4.20
2018-08-13T16:42:50.200Z,4.43
2018-08-13T16:45:20.355Z,4.37
2018-08-13T16:47:49.199Z,4.30
2018-08-13T16:50:21.291Z,5.67
2018-08-13T16:52:50.223Z,5.90
2018-08-13T16:55:19.015Z,5.80
2018-08-13T16:57:47.943Z,5.87
2018-08-13T17:00:21.049Z,6.90
2018-08-13T17:02:49.982Z,6.13
2018-08-13T17:05:18.672Z,8.13
2018-08-13T17:07:47.902Z,11.13
2018-08-13T17:10:19.002Z,7.43
2018-08-13T17:12:48.140Z,8.30
2018-08-13T17:15:16.973Z,7.87
2018-08-13T17:17:47.373Z,8.20
2018-08-13T17:20:18.138Z,9.67
2018-08-13T17:22:46.747Z,10.13
2018-08-13T17:25:16.279Z,10.10
2018-08-13T17:27:45.106Z,9.10
2018-08-13T17:30:16.636Z,9.70
2018-08-13T17:32:46.494Z,10.03
2018-08-13T17:35:17.249Z,10.33
2018-08-13T17:37:46.127Z,11.47
2018-08-13T17:40:18.072Z,9.63
2018-08-13T17:42:47.150Z,10.50
2018-08-13T17:45:16.099Z,11.87
2018-08-13T17:47:44.814Z,10.90
2018-08-13T17:50:16.250Z,10.47
2018-08-13T17:52:45.079Z,11.10
2018-08-13T17:55:14.612Z,10.87
2018-08-13T17:57:44.120Z,10.53
2018-08-13T18:00:16.853Z,10.50
2018-08-13T18:02:45.606Z,11.03
2018-08-13T18:05:16.899Z,10.40
2018-08-13T18:07:45.815Z,11.07
2018-08-13T18:10:20.733Z,11.80
2018-08-13T18:12:49.490Z,10.47
2018-08-13T18:15:18.468Z,11.37
2018-08-13T18:17:47.638Z,11.57
2018-08-13T18:20:16.351Z,11.80
2018-08-13T18:22:45.409Z,11.60
2018-08-13T18:25:14.884Z,10.80
2018-08-13T18:27:44.808Z,11.30
2018-08-13T18:30:19.950Z,10.43
2018-08-13T18:32:48.774Z,11.17
2018-08-13T18:35:17.846Z,10.47
2018-08-13T18:37:46.712Z,10.43
2018-08-13T18:40:18.985Z,9.90
2018-08-13T18:42:47.824Z,8.50
2018-08-13T18:45:16.734Z,8.67
2018-08-13T18:47:45.615Z,7.90
2018-08-13T18:50:17.958Z,7.50
2018-08-13T18:52:46.973Z,7.83
2018-08-13T18:55:18.167Z,8.00
2018-08-13T18:57:47.426Z,8.83
2018-08-13T19:00:17.618Z,6.90
2018-08-13T19:02:46.463Z,7.30
2018-08-13T19:05:16.924Z,7.07
2018-08-13T19:07:46.421Z,7.13
2018-08-13T19:10:16.005Z,6.70
2018-08-13T19:12:44.738Z,7.90
2018-08-13T19:15:15.089Z,6.93
2018-08-13T19:17:43.766Z,6.40
2018-08-13T19:20:13.683Z,6.30
2018-08-13T19:22:43.080Z,8.00
2018-08-13T19:25:17.533Z,7.23
2018-08-13T19:27:46.263Z,7.60
2018-08-13T19:30:28.701Z,6.50
2018-08-13T19:32:59.577Z,7.63
2018-08-13T19:35:29.867Z,7.10
2018-08-13T19:37:59.143Z,7.10
2018-08-13T19:40:27.920Z,7.40
2018-08-13T19:43:17.589Z,8.77
2018-08-13T19:45:47.938Z,7.87
2018-08-13T19:48:16.891Z,8.87
2018-08-13T19:50:45.715Z,8.67
2018-08-13T19:53:15.992Z,9.20
2018-08-13T19:55:45.127Z,8.60
2018-08-13T20:01:05.918Z,8.23
2018-08-13T20:03:34.570Z,9.40
2018-08-13T20:06:03.585Z,8.17
2018-08-13T20:08:32.266Z,8.43
2018-08-13T20:11:01.414Z,8.03
2018-08-13T20:13:30.205Z,8.50
2018-08-13T20:15:59.277Z,8.87
2018-08-13T20:18:28.048Z,8.83
2018-08-13T20:20:56.824Z,9.10
2018-08-13T20:23:25.700Z,10.20
2018-08-13T20:25:54.529Z,9.53
2018-08-13T20:28:23.358Z,8.73
2018-08-13T20:30:52.085Z,8.47
2018-08-13T20:33:21.186Z,9.60
2018-08-13T20:35:50.089Z,8.60
2018-08-13T20:38:19.118Z,8.57
2018-08-13T20:40:48.068Z,9.07
2018-08-13T20:43:16.931Z,9.73
2018-08-13T20:45:45.606Z,10.27
2018-08-13T20:48:14.508Z,8.97
2018-08-13T20:50:43.279Z,9.77
2018-08-13T20:53:11.985Z,8.70
2018-08-13T20:55:40.728Z,8.97
2018-08-13T20:58:09.538Z,9.60
2018-08-13T21:00:38.609Z,8.10
2018-08-13T21:03:07.647Z,7.70
2018-08-13T21:05:36.344Z,7.57
2018-08-13T21:08:05.093Z,7.60
2018-08-13T21:10:33.896Z,7.53
2018-08-13T21:13:04.359Z,7.00
2018-08-13T21:15:33.152Z,6.60
2018-08-13T21:18:05.103Z,6.00
2018-08-13T21:20:33.958Z,7.40
2018-08-13T21:23:02.694Z,9.80
2018-08-13T21:25:31.368Z,7.20
2018-08-13T21:28:00.251Z,7.80
2018-08-13T21:30:29.015Z,8.00
2018-08-13T21:32:57.750Z,7.60
2018-08-13T21:35:26.693Z,8.70
2018-08-13T21:37:55.505Z,7.13
2018-08-13T21:40:24.290Z,9.07
2018-08-13T21:42:54.147Z,9.90
2018-08-13T21:45:22.789Z,7.77
2018-08-13T21:47:52.546Z,7.30
2018-08-13T21:50:22.417Z,8.70
2018-08-13T21:52:51.811Z,7.67
2018-08-13T21:55:20.835Z,8.47
2018-08-13T21:57:49.570Z,10.00
2018-08-13T22:00:24.740Z,9.90
2018-08-13T22:02:54.117Z,9.63
2018-08-13T22:05:22.930Z,9.60
2018-08-13T22:07:51.619Z,7.90
2018-08-13T22:10:20.301Z,8.50
2018-08-13T22:12:49.050Z,9.20
2018-08-13T22:15:25.154Z,8.60
2018-08-13T22:17:56.317Z,8.83
2018-08-13T22:20:25.577Z,8.63
2018-08-13T22:22:54.359Z,8.37
2018-08-13T22:25:26.346Z,7.70
2018-08-13T22:27:54.972Z,7.33
2018-08-13T22:30:23.920Z,7.63
2018-08-13T22:32:52.544Z,8.63
2018-08-13T22:35:21.317Z,7.80
2018-08-13T22:37:50.029Z,8.40
2018-08-13T22:40:20.654Z,9.67
2018-08-13T22:42:49.445Z,8.07
2018-08-13T22:45:20.352Z,7.83
2018-08-13T22:47:49.072Z,9.37
2018-08-13T22:50:17.869Z,8.90
2018-08-13T22:52:46.633Z,9.37
2018-08-13T22:55:17.291Z,9.27
2018-08-13T22:57:46.128Z,9.03
2018-08-13T23:00:16.298Z,9.37
2018-08-13T23:02:45.734Z,9.70
2018-08-13T23:05:16.022Z,10.23
2018-08-13T23:07:44.754Z,10.03
2018-08-13T23:10:16.041Z,9.80
2018-08-13T23:12:45.439Z,8.97
2018-08-13T23:15:15.434Z,9.20
2018-08-13T23:17:44.501Z,10.27
2018-08-13T23:20:18.124Z,9.57
2018-08-13T23:22:50.743Z,10.77
2018-08-13T23:25:19.873Z,9.70
2018-08-13T23:27:52.857Z,10.60
2018-08-13T23:30:21.671Z,10.00
2018-08-13T23:32:51.534Z,12.43
2018-08-13T23:35:24.481Z,12.47
2018-08-13T23:37:53.945Z,12.13
2018-08-13T23:40:22.941Z,12.30
2018-08-13T23:42:51.681Z,12.00
2018-08-13T23:45:21.573Z,12.27
2018-08-13T23:47:50.279Z,12.97
2018-08-13T23:50:20.878Z,13.80
2018-08-13T23:52:51.158Z,12.63
2018-08-13T23:55:22.196Z,12.80
2018-08-13T23:57:50.986Z,14.10
